Time;durP1;ratioP1;P1;durP2;ratioP2;P2;SDS_P1;SDS_P2;PMS_P1;PMS_P2;Temp;Humidity;BMP_temperature;BMP_pressure;BME280_temperature;BME280_humidity;BME280_pressure;Samples;Min_cycle;Max_cycle;Signal;HPM_P1;HPM_P2
2022/05/05 00:01:37;;;;;;;12.77;7.55;;;;;;;;;;6189640;23;20453;-88
2022/05/05 00:04:03;;;;;;;13.75;7.47;;;;;;;;;;6214634;23;20016;-87
2022/05/05 00:06:30;;;;;;;12.50;8.10;;;;;;;;;;6214877;23;20016;-90
2022/05/05 00:08:56;;;;;;;14.80;7.43;;;;;;;;;;6189513;23;20013;-90
2022/05/05 00:17:01;;;;;;;14.27;7.40;;;;;;;;;;6214797;23;20016;-89
2022/05/05 00:19:27;;;;;;;12.32;7.57;;;;;;;;;;6189348;23;20016;-88
2022/05/05 00:21:53;;;;;;;14.00;8.48;;;;;;;;;;6189504;23;20021;-89
2022/05/05 00:24:20;;;;;;;14.35;7.85;;;;;;;;;;6189576;23;20071;-89
2022/05/05 00:26:46;;;;;;;15.30;8.57;;;;;;;;;;6214478;23;20389;-88
2022/05/05 00:29:13;;;;;;;17.25;8.32;;;;;;;;;;6189811;23;20017;-89
2022/05/05 00:31:40;;;;;;;15.63;8.73;;;;;;;;;;6189367;23;20465;-91
2022/05/05 00:34:06;;;;;;;16.02;8.25;;;;;;;;;;6214527;23;20009;-88
2022/05/05 00:36:32;;;;;;;18.35;8.90;;;;;;;;;;6214274;23;20016;-88
2022/05/05 00:38:58;;;;;;;14.57;8.43;;;;;;;;;;6189621;23;20009;-88
2022/05/05 00:41:24;;;;;;;17.15;8.38;;;;;;;;;;6214409;23;20393;-88
2022/05/05 00:43:50;;;;;;;13.52;8.70;;;;;;;;;;6214621;23;20071;-88
2022/05/05 00:46:18;;;;;;;14.23;8.35;;;;;;;;;;6214437;23;20012;-88
2022/05/05 00:48:45;;;;;;;13.93;8.63;;;;;;;;;;6189553;23;20507;-90
2022/05/05 00:51:11;;;;;;;17.52;8.52;;;;;;;;;;6214361;23;20012;-89
2022/05/05 00:53:37;;;;;;;14.57;7.65;;;;;;;;;;6189365;23;20066;-90
2022/05/05 00:56:05;;;;;;;14.10;8.02;;;;;;;;;;6214774;23;20055;-90
2022/05/05 00:58:33;;;;;;;13.20;7.43;;;;;;;;;;6189477;23;20044;-91
2022/05/05 01:01:06;;;;;;;14.85;7.30;;;;;;;;;;6214586;23;20020;-90
2022/05/05 01:03:33;;;;;;;16.02;7.88;;;;;;;;;;6214766;23;20016;-90
2022/05/05 01:06:02;;;;;;;14.27;8.27;;;;;;;;;;6189252;23;20021;-89
2022/05/05 01:08:28;;;;;;;14.55;8.68;;;;;;;;;;6214416;23;20013;-89
2022/05/05 01:10:54;;;;;;;12.25;7.65;;;;;;;;;;6189877;23;20404;-88
2022/05/05 01:13:20;;;;;;;12.25;8.07;;;;;;;;;;6189530;23;20043;-88
2022/05/05 01:15:46;;;;;;;15.20;7.57;;;;;;;;;;6214791;23;20012;-89
2022/05/05 01:18:13;;;;;;;13.07;7.47;;;;;;;;;;6214625;23;20055;-89
2022/05/05 01:20:46;;;;;;;12.75;7.70;;;;;;;;;;6189812;23;20012;-89
2022/05/05 01:23:14;;;;;;;15.15;7.57;;;;;;;;;;6215097;23;20091;-90
2022/05/05 01:28:26;;;;;;;12.07;7.30;;;;;;;;;;6209002;23;20056;-91
2022/05/05 01:30:53;;;;;;;11.38;6.80;;;;;;;;;;6192543;22;20019;-91
2022/05/05 01:33:20;;;;;;;13.18;7.18;;;;;;;;;;6192775;23;20104;-91
2022/05/05 01:35:48;;;;;;;11.65;6.88;;;;;;;;;;6192652;22;20056;-91
2022/05/05 01:38:15;;;;;;;11.73;7.25;;;;;;;;;;6192834;23;20087;-90
2022/05/05 01:40:46;;;;;;;12.75;7.32;;;;;;;;;;6217342;22;20012;-90
2022/05/05 01:43:12;;;;;;;11.90;6.65;;;;;;;;;;6217916;23;20058;-89
2022/05/05 01:45:38;;;;;;;12.40;6.63;;;;;;;;;;6192261;22;20015;-88
2022/05/05 01:48:04;;;;;;;14.77;7.53;;;;;;;;;;6217682;22;20032;-89
2022/05/05 01:50:31;;;;;;;14.50;6.80;;;;;;;;;;6192572;22;20012;-90
2022/05/05 01:52:59;;;;;;;13.43;6.50;;;;;;;;;;6192715;22;20028;-89
2022/05/05 01:55:25;;;;;;;16.00;7.35;;;;;;;;;;6192856;22;20043;-90
2022/05/05 01:57:51;;;;;;;12.75;6.40;;;;;;;;;;6219879;22;20008;-90
2022/05/05 02:00:17;;;;;;;14.13;6.22;;;;;;;;;;6187406;23;20027;-90
2022/05/05 02:02:46;;;;;;;10.45;5.82;;;;;;;;;;6209828;23;20012;-90
2022/05/05 02:05:13;;;;;;;14.27;6.63;;;;;;;;;;6187141;23;20009;-88
2022/05/05 02:07:41;;;;;;;11.40;6.65;;;;;;;;;;6216427;23;20012;-89
2022/05/05 02:10:13;;;;;;;11.82;7.00;;;;;;;;;;6215769;23;20012;-89
2022/05/05 02:12:40;;;;;;;13.43;6.93;;;;;;;;;;6213767;23;20021;-90
2022/05/05 02:15:07;;;;;;;13.35;7.10;;;;;;;;;;6211784;23;20128;-89
2022/05/05 02:17:34;;;;;;;12.25;7.10;;;;;;;;;;6212874;23;20028;-90
2022/05/05 02:20:00;;;;;;;15.50;6.63;;;;;;;;;;6212729;23;20028;-90
2022/05/05 02:22:28;;;;;;;11.18;7.25;;;;;;;;;;6213165;23;20035;-89
2022/05/05 02:24:54;;;;;;;11.43;6.88;;;;;;;;;;6175104;23;20461;-90
2022/05/05 02:27:22;;;;;;;13.85;7.18;;;;;;;;;;6186310;23;20017;-88
2022/05/05 02:29:48;;;;;;;15.27;6.47;;;;;;;;;;6191067;23;20009;-89
2022/05/05 02:32:14;;;;;;;11.60;6.78;;;;;;;;;;6190806;23;20341;-89
2022/05/05 02:34:40;;;;;;;14.40;7.22;;;;;;;;;;6190873;23;20015;-89
2022/05/05 02:39:56;;;;;;;12.95;6.95;;;;;;;;;;6216051;23;20330;-89
2022/05/05 02:42:23;;;;;;;12.70;6.20;;;;;;;;;;6190592;23;20141;-90
2022/05/05 02:44:49;;;;;;;14.82;7.03;;;;;;;;;;6190638;23;20020;-89
2022/05/05 02:47:15;;;;;;;13.18;7.65;;;;;;;;;;6215850;23;20019;-89
2022/05/05 02:49:43;;;;;;;10.85;6.35;;;;;;;;;;6216022;23;20028;-90
2022/05/05 02:52:09;;;;;;;15.55;7.03;;;;;;;;;;6215749;23;20017;-89
2022/05/05 02:54:47;;;;;;;9.30;6.82;;;;;;;;;;6215673;23;20013;-90
2022/05/05 02:57:14;;;;;;;15.25;7.43;;;;;;;;;;6215848;23;20191;-88
2022/05/05 02:59:40;;;;;;;11.23;6.80;;;;;;;;;;6215793;23;20346;-90
2022/05/05 03:02:06;;;;;;;12.15;6.88;;;;;;;;;;6215389;23;20464;-90
2022/05/05 03:04:32;;;;;;;11.52;7.00;;;;;;;;;;6215682;23;20016;-89
2022/05/05 03:07:01;;;;;;;13.73;7.50;;;;;;;;;;6189549;23;20009;-90
2022/05/05 03:09:29;;;;;;;14.60;8.20;;;;;;;;;;6214869;23;20013;-91
2022/05/05 03:11:55;;;;;;;15.43;7.82;;;;;;;;;;6190338;23;20351;-90
2022/05/05 03:14:21;;;;;;;14.10;8.10;;;;;;;;;;6215550;23;20020;-89
2022/05/05 03:16:48;;;;;;;14.32;8.85;;;;;;;;;;6215358;23;20017;-89
2022/05/05 03:19:14;;;;;;;20.45;8.50;;;;;;;;;;6190438;23;20083;-91
2022/05/05 03:21:40;;;;;;;14.90;8.38;;;;;;;;;;6190108;23;20023;-88
2022/05/05 03:24:06;;;;;;;12.23;7.95;;;;;;;;;;6190215;23;20013;-87
2022/05/05 03:26:32;;;;;;;13.20;8.15;;;;;;;;;;6214724;23;20318;-87
2022/05/05 03:28:58;;;;;;;10.65;7.65;;;;;;;;;;6190241;23;20107;-90
2022/05/05 03:31:24;;;;;;;18.10;8.32;;;;;;;;;;6215222;23;20022;-89
2022/05/05 03:33:53;;;;;;;16.30;8.13;;;;;;;;;;6215321;23;20162;-87
2022/05/05 03:36:23;;;;;;;15.00;9.25;;;;;;;;;;6216576;23;20434;-88
2022/05/05 03:38:49;;;;;;;15.38;8.65;;;;;;;;;;6190120;23;20013;-88
2022/05/05 03:41:15;;;;;;;15.70;7.97;;;;;;;;;;6189877;23;20013;-89
2022/05/05 03:43:41;;;;;;;12.82;8.25;;;;;;;;;;6215241;23;20413;-88
2022/05/05 03:46:07;;;;;;;15.55;8.30;;;;;;;;;;6189840;23;20016;-90
2022/05/05 03:48:36;;;;;;;14.23;8.45;;;;;;;;;;6215278;23;20453;-91
2022/05/05 03:51:04;;;;;;;13.85;8.25;;;;;;;;;;6215061;23;20024;-89
2022/05/05 03:53:30;;;;;;;18.77;8.27;;;;;;;;;;6214069;23;20346;-89
2022/05/05 03:55:56;;;;;;;13.90;8.00;;;;;;;;;;6215071;23;20063;-88
2022/05/05 03:58:22;;;;;;;15.82;8.60;;;;;;;;;;6214922;23;20377;-90
2022/05/05 04:00:48;;;;;;;15.70;8.57;;;;;;;;;;6214937;23;20031;-88
2022/05/05 04:03:33;;;;;;;15.27;8.60;;;;;;;;;;6189811;23;20465;-88
2022/05/05 04:06:12;;;;;;;14.70;8.75;;;;;;;;;;6215439;23;20008;-89
2022/05/05 04:08:41;;;;;;;15.32;8.80;;;;;;;;;;6215562;23;20051;-90
2022/05/05 04:11:07;;;;;;;16.77;8.93;;;;;;;;;;6216649;23;20016;-89
2022/05/05 04:13:34;;;;;;;16.23;9.30;;;;;;;;;;6214639;23;20015;-88
2022/05/05 04:16:00;;;;;;;13.68;8.55;;;;;;;;;;6214966;23;20008;-89
2022/05/05 04:18:26;;;;;;;18.30;9.65;;;;;;;;;;6214394;23;20335;-88
2022/05/05 04:20:53;;;;;;;14.48;8.63;;;;;;;;;;6189652;23;20101;-89
2022/05/05 04:23:19;;;;;;;12.10;8.70;;;;;;;;;;6164903;23;20020;-90
2022/05/05 04:25:45;;;;;;;12.13;9.05;;;;;;;;;;6214735;23;20027;-89
2022/05/05 04:28:12;;;;;;;17.65;9.10;;;;;;;;;;6191017;23;20017;-93
2022/05/05 04:30:40;;;;;;;15.25;9.52;;;;;;;;;;6190272;23;20017;-92
2022/05/05 04:33:07;;;;;;;13.20;8.50;;;;;;;;;;6190320;23;20012;-94
2022/05/05 04:35:33;;;;;;;13.40;9.00;;;;;;;;;;6190760;23;20012;-92
2022/05/05 04:37:59;;;;;;;18.45;9.68;;;;;;;;;;6190432;23;20043;-94
2022/05/05 04:40:25;;;;;;;16.02;9.32;;;;;;;;;;6191849;23;20013;-92
2022/05/05 04:42:53;;;;;;;15.20;9.20;;;;;;;;;;6190863;23;20127;-94
2022/05/05 04:45:19;;;;;;;17.20;9.32;;;;;;;;;;6215436;23;20454;-92
2022/05/05 04:47:45;;;;;;;16.48;9.85;;;;;;;;;;6214328;23;20345;-92
2022/05/05 04:50:11;;;;;;;17.38;9.82;;;;;;;;;;6190986;23;20044;-92
2022/05/05 04:52:38;;;;;;;17.75;10.52;;;;;;;;;;6214951;23;20012;-94
2022/05/05 04:55:07;;;;;;;16.67;10.18;;;;;;;;;;6190735;23;20060;-92
2022/05/05 04:57:36;;;;;;;20.67;10.80;;;;;;;;;;6190183;23;20091;-93
2022/05/05 05:00:02;;;;;;;17.60;10.27;;;;;;;;;;6191877;23;20008;-93
2022/05/05 05:02:28;;;;;;;20.65;10.75;;;;;;;;;;6190233;23;20470;-93
2022/05/05 05:05:02;;;;;;;18.40;10.77;;;;;;;;;;6190375;23;20099;-94
2022/05/05 05:07:28;;;;;;;17.92;11.02;;;;;;;;;;6215579;23;20012;-93
2022/05/05 05:09:55;;;;;;;14.93;9.77;;;;;;;;;;6189612;23;20012;-93
2022/05/05 05:12:21;;;;;;;18.80;12.02;;;;;;;;;;6189712;23;20457;-94
2022/05/05 05:14:48;;;;;;;19.27;10.65;;;;;;;;;;6190149;23;20091;-92
2022/05/05 05:17:15;;;;;;;17.25;10.90;;;;;;;;;;6189286;23;20016;-91
2022/05/05 05:19:41;;;;;;;21.17;11.23;;;;;;;;;;6165002;23;20315;-90
2022/05/05 05:22:08;;;;;;;17.83;10.95;;;;;;;;;;6189552;23;20050;-92
2022/05/05 05:24:37;;;;;;;18.75;10.68;;;;;;;;;;6214399;23;20017;-94
2022/05/05 05:27:03;;;;;;;18.60;11.18;;;;;;;;;;6214117;23;20027;-93
2022/05/05 05:29:30;;;;;;;18.30;11.20;;;;;;;;;;6189377;23;20016;-93
2022/05/05 05:31:57;;;;;;;14.90;11.07;;;;;;;;;;6189247;23;20048;-92
2022/05/05 05:34:23;;;;;;;16.77;11.48;;;;;;;;;;6189347;23;20063;-94
2022/05/05 05:36:52;;;;;;;17.73;11.95;;;;;;;;;;6189401;23;20016;-93
2022/05/05 05:39:18;;;;;;;18.77;11.27;;;;;;;;;;6214121;23;20460;-94
2022/05/05 05:41:44;;;;;;;17.05;11.95;;;;;;;;;;6189363;23;20012;-91
2022/05/05 05:44:11;;;;;;;16.83;11.15;;;;;;;;;;6189291;23;20016;-91
2022/05/05 05:46:37;;;;;;;17.70;11.73;;;;;;;;;;6164968;23;20466;-91
2022/05/05 05:49:05;;;;;;;16.77;11.57;;;;;;;;;;6189879;23;20333;-92
2022/05/05 05:51:31;;;;;;;19.45;11.38;;;;;;;;;;6189186;23;20019;-91
2022/05/05 05:53:57;;;;;;;18.27;11.35;;;;;;;;;;6215642;23;20517;-90
2022/05/05 05:56:24;;;;;;;16.17;11.30;;;;;;;;;;6189608;23;20422;-89
2022/05/05 05:58:51;;;;;;;21.00;11.90;;;;;;;;;;6189078;23;20012;-91
2022/05/05 06:01:17;;;;;;;20.15;11.00;;;;;;;;;;6189846;23;20016;-91
2022/05/05 06:03:58;;;;;;;15.32;11.48;;;;;;;;;;6189915;23;20017;-91
2022/05/05 06:06:24;;;;;;;17.13;10.40;;;;;;;;;;6215259;23;20035;-90
2022/05/05 06:08:51;;;;;;;20.70;11.02;;;;;;;;;;6189616;23;20012;-91
2022/05/05 06:11:19;;;;;;;14.90;10.70;;;;;;;;;;6190172;23;20016;-93
2022/05/05 06:13:45;;;;;;;22.15;11.30;;;;;;;;;;6190945;23;20147;-92
2022/05/05 06:16:11;;;;;;;18.50;10.90;;;;;;;;;;6189489;23;20013;-93
2022/05/05 06:18:38;;;;;;;22.67;10.50;;;;;;;;;;6214764;23;20009;-92
2022/05/05 06:21:04;;;;;;;22.80;11.32;;;;;;;;;;6216458;23;20107;-94
2022/05/05 06:23:34;;;;;;;19.38;11.05;;;;;;;;;;6213960;23;20019;-90
2022/05/05 06:26:00;;;;;;;16.58;10.32;;;;;;;;;;6213674;23;20484;-90
2022/05/05 06:28:26;;;;;;;17.17;10.35;;;;;;;;;;6189265;23;20021;-88
2022/05/05 06:30:52;;;;;;;19.15;11.10;;;;;;;;;;6213991;23;20020;-89
2022/05/05 06:33:19;;;;;;;17.33;10.77;;;;;;;;;;6188834;23;20012;-91
2022/05/05 06:35:46;;;;;;;16.40;10.80;;;;;;;;;;6214667;23;20521;-86
2022/05/05 06:38:12;;;;;;;17.98;10.35;;;;;;;;;;6214417;23;20008;-89
2022/05/05 06:40:38;;;;;;;17.65;10.30;;;;;;;;;;6189453;23;20012;-90
2022/05/05 06:43:04;;;;;;;16.05;10.38;;;;;;;;;;6216225;23;20020;-90
2022/05/05 06:45:30;;;;;;;17.88;9.77;;;;;;;;;;6215910;23;20008;-90
2022/05/05 06:47:58;;;;;;;17.73;10.32;;;;;;;;;;6190609;23;20092;-92
2022/05/05 06:50:25;;;;;;;18.60;9.73;;;;;;;;;;6191334;23;20020;-89
2022/05/05 06:52:51;;;;;;;18.02;9.63;;;;;;;;;;6190725;23;20013;-90
2022/05/05 06:55:18;;;;;;;19.23;9.85;;;;;;;;;;6191096;23;20048;-91
2022/05/05 06:57:46;;;;;;;11.63;8.63;;;;;;;;;;6191032;23;20460;-90
2022/05/05 07:00:12;;;;;;;17.08;9.05;;;;;;;;;;6190495;23;20012;-89
2022/05/05 07:02:38;;;;;;;14.52;9.00;;;;;;;;;;6191077;23;20012;-91
2022/05/05 07:07:48;;;;;;;14.73;9.48;;;;;;;;;;6216230;23;20094;-90
2022/05/05 07:12:59;;;;;;;18.38;10.35;;;;;;;;;;6215473;23;20024;-90
2022/05/05 07:15:25;;;;;;;16.85;10.65;;;;;;;;;;6190065;23;20100;-91
2022/05/05 07:17:51;;;;;;;15.35;10.05;;;;;;;;;;6190325;23;20119;-90
2022/05/05 07:20:17;;;;;;;19.70;10.75;;;;;;;;;;6215550;23;20017;-91
2022/05/05 07:22:43;;;;;;;19.73;10.23;;;;;;;;;;6190391;23;20012;-89
2022/05/05 07:25:10;;;;;;;16.98;9.65;;;;;;;;;;6216215;23;20017;-89
2022/05/05 07:27:39;;;;;;;17.15;10.25;;;;;;;;;;6190307;23;20017;-91
2022/05/05 07:30:06;;;;;;;18.55;9.77;;;;;;;;;;6190449;23;20012;-89
2022/05/05 07:32:32;;;;;;;18.70;9.95;;;;;;;;;;6190278;23;20016;-89
2022/05/05 07:34:58;;;;;;;16.83;10.40;;;;;;;;;;6190293;23;20017;-91
2022/05/05 07:37:24;;;;;;;18.13;11.02;;;;;;;;;;6190919;23;20020;-90
2022/05/05 07:39:50;;;;;;;20.10;10.98;;;;;;;;;;6190371;23;20019;-93
2022/05/05 07:42:16;;;;;;;17.80;10.90;;;;;;;;;;6191993;23;20016;-93
2022/05/05 07:44:42;;;;;;;16.05;9.75;;;;;;;;;;6191594;23;20013;-91
2022/05/05 07:47:17;;;;;;;18.08;10.07;;;;;;;;;;6192434;23;20059;-91
2022/05/05 07:49:42;;;;;;;16.08;9.77;;;;;;;;;;6190814;23;20016;-90
2022/05/05 07:52:08;;;;;;;15.50;9.88;;;;;;;;;;6190560;23;20044;-92
2022/05/05 07:54:34;;;;;;;17.92;10.30;;;;;;;;;;6189650;23;20008;-92
2022/05/05 07:57:08;;;;;;;20.25;10.48;;;;;;;;;;6191347;23;20114;-92
2022/05/05 07:59:37;;;;;;;19.17;9.32;;;;;;;;;;6191129;23;20040;-92
2022/05/05 08:02:13;;;;;;;17.73;9.63;;;;;;;;;;6190376;23;20016;-91
2022/05/05 08:04:44;;;;;;;15.48;9.00;;;;;;;;;;6168449;23;20385;-95
2022/05/05 08:07:11;;;;;;;15.43;8.80;;;;;;;;;;6191794;23;20009;-91
2022/05/05 08:09:39;;;;;;;17.00;8.35;;;;;;;;;;6215641;23;20074;-92
2022/05/05 08:12:17;;;;;;;15.15;8.18;;;;;;;;;;6190280;23;20013;-93
2022/05/05 08:14:43;;;;;;;13.23;8.60;;;;;;;;;;6189946;23;20019;-92
2022/05/05 08:17:11;;;;;;;15.82;8.13;;;;;;;;;;6190936;23;20012;-93
2022/05/05 08:19:37;;;;;;;14.65;7.50;;;;;;;;;;6215624;23;20525;-89
2022/05/05 08:22:03;;;;;;;17.85;8.82;;;;;;;;;;6215553;23;20024;-90
2022/05/05 08:30:06;;;;;;;12.40;5.10;;;;;;;;;;6215425;23;20017;-93
2022/05/05 08:32:32;;;;;;;11.98;5.50;;;;;;;;;;6165803;23;20066;-93
2022/05/05 08:34:58;;;;;;;12.13;6.43;;;;;;;;;;6190830;23;20087;-92
2022/05/05 08:37:24;;;;;;;16.50;6.05;;;;;;;;;;6189975;23;20016;-92
2022/05/05 08:39:50;;;;;;;11.60;6.35;;;;;;;;;;6190452;23;20380;-93
2022/05/05 08:42:19;;;;;;;10.93;5.93;;;;;;;;;;6190661;23;20283;-93
2022/05/05 08:44:45;;;;;;;12.13;6.10;;;;;;;;;;6190337;23;20088;-91
2022/05/05 08:47:14;;;;;;;11.02;5.22;;;;;;;;;;6190328;23;20012;-92
2022/05/05 08:49:44;;;;;;;9.60;4.82;;;;;;;;;;6165431;23;20017;-93
2022/05/05 08:52:12;;;;;;;8.70;4.50;;;;;;;;;;6190219;23;20023;-94
2022/05/05 08:54:41;;;;;;;9.30;4.97;;;;;;;;;;6190620;23;20446;-93
2022/05/05 08:57:11;;;;;;;11.43;5.05;;;;;;;;;;6215094;23;20009;-91
2022/05/05 08:59:37;;;;;;;9.20;4.43;;;;;;;;;;6189838;23;20009;-95
2022/05/05 09:02:03;;;;;;;11.50;4.50;;;;;;;;;;6190048;23;20501;-89
2022/05/05 09:04:32;;;;;;;10.88;4.30;;;;;;;;;;6190999;23;20086;-92
2022/05/05 09:07:04;;;;;;;12.65;5.18;;;;;;;;;;6191154;23;20023;-91
2022/05/05 09:12:27;;;;;;;11.43;4.45;;;;;;;;;;6217677;23;20024;-91
2022/05/05 09:14:55;;;;;;;10.30;5.10;;;;;;;;;;6161587;22;20012;-91
2022/05/05 09:17:28;;;;;;;10.80;4.72;;;;;;;;;;6136018;23;20465;-92
2022/05/05 09:19:55;;;;;;;9.63;4.55;;;;;;;;;;6135089;23;20112;-92
2022/05/05 09:22:24;;;;;;;8.60;4.47;;;;;;;;;;6135004;23;20446;-91
2022/05/05 09:24:51;;;;;;;11.18;4.57;;;;;;;;;;6134986;23;20013;-90
2022/05/05 09:27:36;;;;;;;10.63;4.63;;;;;;;;;;6135090;23;20013;-90
2022/05/05 09:30:08;;;;;;;9.90;4.23;;;;;;;;;;6159851;23;20013;-92
2022/05/05 09:32:38;;;;;;;8.38;4.15;;;;;;;;;;6134779;23;20020;-91
2022/05/05 09:35:24;;;;;;;8.63;4.65;;;;;;;;;;6164080;23;20237;-92
2022/05/05 09:37:56;;;;;;;9.57;4.60;;;;;;;;;;6160851;23;20017;-90
2022/05/05 09:40:25;;;;;;;10.20;4.45;;;;;;;;;;6140223;23;20010;-94
2022/05/05 09:42:51;;;;;;;12.73;5.03;;;;;;;;;;6136357;23;20450;-93
2022/05/05 09:45:43;;;;;;;8.93;4.75;;;;;;;;;;6137350;23;20016;-94
2022/05/05 09:48:23;;;;;;;9.85;5.05;;;;;;;;;;6157680;23;20017;-91
2022/05/05 09:51:18;;;;;;;8.52;4.90;;;;;;;;;;6135842;23;20017;-95
2022/05/05 09:59:34;;;;;;;9.88;5.30;;;;;;;;;;6188134;23;20017;-94
2022/05/05 10:05:29;;;;;;;10.05;5.50;;;;;;;;;;6120382;23;20071;-92
2022/05/05 10:08:21;;;;;;;10.70;5.47;;;;;;;;;;6136368;23;20027;-92
2022/05/05 10:10:57;;;;;;;11.55;5.50;;;;;;;;;;6137116;23;20477;-93
2022/05/05 10:13:27;;;;;;;9.73;5.65;;;;;;;;;;6113058;23;20093;-91
2022/05/05 10:15:56;;;;;;;12.95;5.82;;;;;;;;;;6149446;23;20012;-94
2022/05/05 10:18:25;;;;;;;10.57;5.00;;;;;;;;;;6191458;23;20327;-91
2022/05/05 10:20:57;;;;;;;13.32;5.55;;;;;;;;;;6192613;23;20091;-93
2022/05/05 10:23:37;;;;;;;10.88;5.20;;;;;;;;;;6166522;23;20054;-93
2022/05/05 10:26:11;;;;;;;10.00;5.60;;;;;;;;;;6191637;23;20346;-89
2022/05/05 10:28:54;;;;;;;8.98;5.25;;;;;;;;;;6166691;23;20071;-92
2022/05/05 10:31:37;;;;;;;9.88;5.25;;;;;;;;;;6164915;23;20013;-91
2022/05/05 10:34:16;;;;;;;10.85;5.15;;;;;;;;;;6191662;23;20016;-92
2022/05/05 10:37:04;;;;;;;8.43;4.90;;;;;;;;;;6166986;23;20066;-92
2022/05/05 10:40:06;;;;;;;10.35;4.95;;;;;;;;;;6193094;23;20018;-93
2022/05/05 10:42:58;;;;;;;8.60;4.97;;;;;;;;;;6167599;23;20070;-92
2022/05/05 10:45:31;;;;;;;9.32;4.97;;;;;;;;;;6193260;23;20453;-93
2022/05/05 10:48:06;;;;;;;9.98;4.93;;;;;;;;;;6167439;23;20023;-92
2022/05/05 10:50:33;;;;;;;7.65;4.38;;;;;;;;;;6167482;23;20071;-94
2022/05/05 10:52:59;;;;;;;8.80;4.68;;;;;;;;;;6193009;23;20330;-93
2022/05/05 10:55:41;;;;;;;7.07;4.53;;;;;;;;;;6194639;23;20070;-92
2022/05/05 10:58:09;;;;;;;10.38;5.10;;;;;;;;;;6168194;23;20008;-92
2022/05/05 11:00:44;;;;;;;9.48;4.35;;;;;;;;;;6167078;23;20389;-91
2022/05/05 11:03:14;;;;;;;8.90;4.50;;;;;;;;;;6166737;23;20016;-90
2022/05/05 11:05:43;;;;;;;10.10;5.03;;;;;;;;;;6168322;23;20345;-93
2022/05/05 11:08:17;;;;;;;8.38;4.90;;;;;;;;;;6168475;23;20015;-94
2022/05/05 11:13:38;;;;;;;9.35;4.80;;;;;;;;;;6193196;23;20384;-94
2022/05/05 11:22:07;;;;;;;8.52;5.07;;;;;;;;;;6218478;22;20008;-93
2022/05/05 11:24:34;;;;;;;13.05;5.28;;;;;;;;;;6218457;22;20009;-93
2022/05/05 11:27:01;;;;;;;8.48;4.65;;;;;;;;;;6193504;22;20025;-94
2022/05/05 11:29:31;;;;;;;8.18;4.60;;;;;;;;;;6192472;22;20013;-93
2022/05/05 11:32:01;;;;;;;9.95;4.85;;;;;;;;;;6193202;22;20036;-95
2022/05/05 11:34:32;;;;;;;8.73;4.80;;;;;;;;;;6193798;22;20043;-94
2022/05/05 11:37:00;;;;;;;10.13;5.18;;;;;;;;;;6164776;22;20056;-91
2022/05/05 11:39:26;;;;;;;9.32;5.15;;;;;;;;;;6193561;22;20005;-93
2022/05/05 11:42:03;;;;;;;8.20;4.63;;;;;;;;;;6193377;22;20013;-93
2022/05/05 11:44:29;;;;;;;8.98;5.60;;;;;;;;;;6193841;22;20019;-93
2022/05/05 11:46:58;;;;;;;8.25;4.80;;;;;;;;;;6193339;22;20004;-92
2022/05/05 11:49:32;;;;;;;10.85;5.35;;;;;;;;;;6218410;22;20025;-92
2022/05/05 11:51:58;;;;;;;9.77;5.40;;;;;;;;;;6217987;22;20005;-92
2022/05/05 11:54:39;;;;;;;10.38;5.05;;;;;;;;;;6208088;22;20011;-92
2022/05/05 11:57:05;;;;;;;11.32;5.57;;;;;;;;;;6192342;22;20032;-93
2022/05/05 12:02:17;;;;;;;;;;;;;;;;;;6216875;22;20024;-94
2022/05/05 12:04:44;;;;;;;;;;;;;;;;;;6218867;22;19904;-92
2022/05/05 12:07:12;;;;;;;8.40;5.25;;;;;;;;;;6217357;22;19915;-92
2022/05/05 12:09:42;;;;;;;9.77;5.25;;;;;;;;;;6193334;22;20009;-93
2022/05/05 12:12:09;;;;;;;13.50;6.03;;;;;;;;;;6193077;22;20008;-93
2022/05/05 12:14:42;;;;;;;8.80;5.38;;;;;;;;;;6174034;23;20013;-92
2022/05/05 12:17:09;;;;;;;9.45;5.75;;;;;;;;;;6189071;23;20461;-91
2022/05/05 12:19:44;;;;;;;53.22;7.30;;;;;;;;;;6165091;23;20017;-92
2022/05/05 12:22:11;;;;;;;10.88;5.47;;;;;;;;;;6164362;23;20039;-91
2022/05/05 12:24:43;;;;;;;8.25;5.10;;;;;;;;;;6189556;23;20044;-92
2022/05/05 12:27:12;;;;;;;10.68;5.85;;;;;;;;;;6164684;23;20450;-91
2022/05/05 12:29:43;;;;;;;10.27;5.78;;;;;;;;;;6165228;23;20043;-92
2022/05/05 12:32:10;;;;;;;9.48;5.82;;;;;;;;;;6190397;23;20008;-92
2022/05/05 12:34:36;;;;;;;12.77;6.68;;;;;;;;;;6190126;23;20048;-92
2022/05/05 12:37:08;;;;;;;11.30;5.20;;;;;;;;;;6184885;23;20031;-93
2022/05/05 12:39:34;;;;;;;8.35;5.68;;;;;;;;;;6192987;22;20005;-94
2022/05/05 12:42:00;;;;;;;13.70;6.10;;;;;;;;;;6190639;23;20024;-93
2022/05/05 12:44:33;;;;;;;11.18;5.97;;;;;;;;;;6179007;23;20442;-93
2022/05/05 12:47:03;;;;;;;10.18;5.82;;;;;;;;;;6192628;23;20013;-93
2022/05/05 12:49:39;;;;;;;12.95;6.75;;;;;;;;;;6142748;23;20072;-91
2022/05/05 12:59:36;;;;;;;13.70;6.32;;;;;;;;;;6181582;22;19996;-93
2022/05/05 13:00:25;;;;;;;14.95;6.80;;;;;;;;;;6190783;23;19912;-93
2022/05/05 13:02:52;;;;;;;10.77;6.80;;;;;;;;;;6139136;23;20452;-92
2022/05/05 13:05:19;;;;;;;14.88;7.82;;;;;;;;;;6164969;23;20084;-92
2022/05/05 13:07:45;;;;;;;12.27;7.35;;;;;;;;;;6165076;23;20430;-91
2022/05/05 13:10:14;;;;;;;10.73;7.13;;;;;;;;;;6166466;23;20099;-92
2022/05/05 13:12:46;;;;;;;11.48;6.28;;;;;;;;;;6191110;23;20595;-92
2022/05/05 13:15:14;;;;;;;11.88;6.55;;;;;;;;;;6211557;23;20027;-94
2022/05/05 13:17:40;;;;;;;13.80;6.78;;;;;;;;;;6136097;23;20028;-94
2022/05/05 13:20:07;;;;;;;10.55;6.10;;;;;;;;;;6137100;23;20431;-93
2022/05/05 13:22:33;;;;;;;10.95;6.50;;;;;;;;;;6135130;23;20048;-91
2022/05/05 13:24:59;;;;;;;11.68;6.28;;;;;;;;;;6134513;23;20442;-96
2022/05/05 13:27:26;;;;;;;12.27;6.22;;;;;;;;;;6134709;23;20055;-93
2022/05/05 13:29:52;;;;;;;11.10;7.05;;;;;;;;;;6135381;23;20017;-92
2022/05/05 13:32:18;;;;;;;10.45;6.78;;;;;;;;;;6135590;23;20075;-93
2022/05/05 13:34:45;;;;;;;15.13;6.88;;;;;;;;;;6135448;23;20434;-92
2022/05/05 13:37:11;;;;;;;13.88;7.32;;;;;;;;;;6159430;23;20497;-94
2022/05/05 13:39:40;;;;;;;14.63;6.55;;;;;;;;;;6135611;23;20335;-91
2022/05/05 13:42:06;;;;;;;12.68;6.85;;;;;;;;;;6135135;23;20017;-91
2022/05/05 13:44:32;;;;;;;12.05;6.50;;;;;;;;;;6136047;23;20040;-93
2022/05/05 13:46:58;;;;;;;11.68;7.07;;;;;;;;;;6140486;23;20323;-91
2022/05/05 13:49:24;;;;;;;10.48;6.68;;;;;;;;;;6135658;23;20393;-91
2022/05/05 13:51:50;;;;;;;11.52;7.10;;;;;;;;;;6135385;23;20052;-93
2022/05/05 13:54:17;;;;;;;11.75;6.55;;;;;;;;;;6135262;23;20012;-91
2022/05/05 13:56:43;;;;;;;11.50;5.97;;;;;;;;;;6135173;23;20051;-91
2022/05/05 13:59:09;;;;;;;12.80;6.10;;;;;;;;;;6134629;23;20390;-91
2022/05/05 14:01:38;;;;;;;11.52;6.10;;;;;;;;;;6135381;23;20020;-93
2022/05/05 14:04:07;;;;;;;12.93;5.85;;;;;;;;;;6159722;23;20100;-92
2022/05/05 14:06:33;;;;;;;13.13;6.25;;;;;;;;;;6135224;23;20013;-91
2022/05/05 14:12:15;;;;;;;11.65;6.28;;;;;;;;;;6186396;23;20028;-93
2022/05/05 14:14:45;;;;;;;10.38;6.53;;;;;;;;;;6160401;23;20016;-91
2022/05/05 14:17:17;;;;;;;10.00;6.00;;;;;;;;;;6186501;23;20021;-91
2022/05/05 14:19:44;;;;;;;12.65;6.22;;;;;;;;;;6135030;23;20442;-93
2022/05/05 14:22:10;;;;;;;13.30;6.25;;;;;;;;;;6134358;23;20604;-92
2022/05/05 14:24:36;;;;;;;13.02;5.22;;;;;;;;;;6134631;23;20017;-91
2022/05/05 14:27:03;;;;;;;13.85;6.57;;;;;;;;;;6134721;23;20125;-94
2022/05/05 14:29:30;;;;;;;13.65;6.32;;;;;;;;;;6134771;23;20110;-93
2022/05/05 14:32:01;;;;;;;12.40;6.30;;;;;;;;;;6134876;23;20020;-93
2022/05/05 14:34:28;;;;;;;10.98;5.93;;;;;;;;;;6156540;23;20019;-91
2022/05/05 14:36:54;;;;;;;12.43;5.80;;;;;;;;;;6159434;23;20350;-91
2022/05/05 14:39:20;;;;;;;10.23;5.50;;;;;;;;;;6133588;23;20038;-92
2022/05/05 14:41:46;;;;;;;9.23;5.88;;;;;;;;;;6134984;23;20112;-93
2022/05/05 14:44:12;;;;;;;11.45;5.53;;;;;;;;;;6134278;23;20065;-89
2022/05/05 14:46:39;;;;;;;13.60;5.95;;;;;;;;;;6159533;23;20417;-91
2022/05/05 14:49:08;;;;;;;9.07;5.15;;;;;;;;;;6135192;23;20040;-92
2022/05/05 14:51:35;;;;;;;10.65;5.88;;;;;;;;;;6134574;23;20017;-91
2022/05/05 14:54:01;;;;;;;10.75;5.53;;;;;;;;;;6134355;23;20052;-86
2022/05/05 14:56:27;;;;;;;12.02;5.70;;;;;;;;;;6134538;23;20017;-92
2022/05/05 14:58:55;;;;;;;8.48;5.05;;;;;;;;;;6134966;23;20013;-92
2022/05/05 15:01:25;;;;;;;10.32;5.60;;;;;;;;;;6158423;23;20021;-92
2022/05/05 15:03:51;;;;;;;11.73;5.15;;;;;;;;;;6160211;23;20450;-93
2022/05/05 15:06:18;;;;;;;11.30;5.80;;;;;;;;;;6160247;23;20023;-92
2022/05/05 15:08:44;;;;;;;12.38;5.10;;;;;;;;;;6186266;23;20013;-91
2022/05/05 15:11:14;;;;;;;9.00;5.05;;;;;;;;;;6135690;23;20021;-89
2022/05/05 15:13:40;;;;;;;9.57;5.78;;;;;;;;;;6138246;23;20017;-91
2022/05/05 15:16:06;;;;;;;8.90;5.28;;;;;;;;;;6161112;23;20019;-93
2022/05/05 15:18:32;;;;;;;9.73;5.38;;;;;;;;;;6137009;23;20029;-91
2022/05/05 15:21:02;;;;;;;11.15;5.60;;;;;;;;;;6136028;23;20016;-91
2022/05/05 15:23:28;;;;;;;8.68;5.43;;;;;;;;;;6135901;23;20016;-89
2022/05/05 15:25:54;;;;;;;9.70;5.50;;;;;;;;;;6135134;23;20020;-88
2022/05/05 15:28:20;;;;;;;10.05;5.63;;;;;;;;;;6160565;23;20017;-88
2022/05/05 15:30:46;;;;;;;11.45;6.55;;;;;;;;;;6135304;23;20343;-91
2022/05/05 15:33:12;;;;;;;10.60;5.72;;;;;;;;;;6159986;23;20014;-90